sensor_id;sensor_type;location;lat;lon;timestamp;P1;durP1;ratioP1;P2;durP2;ratioP2
3503;SDS011;1766;53.490;10.174;2023-01-23T00:01:29;3.00;;;1.70;;
3503;SDS011;1766;53.490;10.174;2023-01-23T00:03:33;3.07;;;1.63;;
3503;SDS011;1766;53.490;10.174;2023-01-23T00:05:36;3.37;;;1.90;;
3503;SDS011;1766;53.490;10.174;2023-01-23T00:07:38;4.87;;;1.73;;
3503;SDS011;1766;53.490;10.174;2023-01-23T00:09:39;3.33;;;2.00;;
3503;SDS011;1766;53.490;10.174;2023-01-23T00:11:41;2.20;;;1.87;;
3503;SDS011;1766;53.490;10.174;2023-01-23T00:13:43;2.33;;;1.53;;
3503;SDS011;1766;53.490;10.174;2023-01-23T00:15:45;2.53;;;1.73;;
3503;SDS011;1766;53.490;10.174;2023-01-23T00:17:48;2.90;;;1.70;;
3503;SDS011;1766;53.490;10.174;2023-01-23T00:19:51;1.73;;;1.63;;
3503;SDS011;1766;53.490;10.174;2023-01-23T00:21:55;6.00;;;1.93;;
3503;SDS011;1766;53.490;10.174;2023-01-23T00:23:59;4.10;;;1.97;;
3503;SDS011;1766;53.490;10.174;2023-01-23T00:26:02;2.33;;;1.80;;
3503;SDS011;1766;53.490;10.174;2023-01-23T00:28:05;4.63;;;1.87;;
3503;SDS011;1766;53.490;10.174;2023-01-23T00:30:07;1.83;;;1.50;;
3503;SDS011;1766;53.490;10.174;2023-01-23T00:32:12;3.70;;;1.63;;
3503;SDS011;1766;53.490;10.174;2023-01-23T00:34:14;3.57;;;1.47;;
3503;SDS011;1766;53.490;10.174;2023-01-23T00:36:16;3.87;;;1.53;;
3503;SDS011;1766;53.490;10.174;2023-01-23T00:38:20;4.90;;;2.10;;
3503;SDS011;1766;53.490;10.174;2023-01-23T00:40:22;2.73;;;1.80;;
3503;SDS011;1766;53.490;10.174;2023-01-23T00:42:23;3.40;;;1.50;;
3503;SDS011;1766;53.490;10.174;2023-01-23T00:44:25;2.50;;;1.40;;
3503;SDS011;1766;53.490;10.174;2023-01-23T00:46:27;2.53;;;1.40;;
3503;SDS011;1766;53.490;10.174;2023-01-23T00:48:29;1.50;;;1.40;;
3503;SDS011;1766;53.490;10.174;2023-01-23T00:50:31;2.47;;;1.57;;
3503;SDS011;1766;53.490;10.174;2023-01-23T00:52:33;3.67;;;1.53;;
3503;SDS011;1766;53.490;10.174;2023-01-23T00:54:36;2.77;;;1.60;;
3503;SDS011;1766;53.490;10.174;2023-01-23T00:56:38;2.97;;;2.00;;
3503;SDS011;1766;53.490;10.174;2023-01-23T00:58:40;3.20;;;1.87;;
3503;SDS011;1766;53.490;10.174;2023-01-23T01:00:42;4.60;;;1.77;;
3503;SDS011;1766;53.490;10.174;2023-01-23T01:02:44;4.23;;;1.87;;
3503;SDS011;1766;53.490;10.174;2023-01-23T01:04:45;1.50;;;1.40;;
3503;SDS011;1766;53.490;10.174;2023-01-23T01:06:47;1.50;;;1.40;;
3503;SDS011;1766;53.490;10.174;2023-01-23T01:08:49;2.03;;;1.70;;
3503;SDS011;1766;53.490;10.174;2023-01-23T01:10:52;1.83;;;1.67;;
3503;SDS011;1766;53.490;10.174;2023-01-23T01:12:54;3.10;;;1.90;;
3503;SDS011;1766;53.490;10.174;2023-01-23T01:14:56;4.40;;;2.17;;
3503;SDS011;1766;53.490;10.174;2023-01-23T01:16:58;2.23;;;1.80;;
3503;SDS011;1766;53.490;10.174;2023-01-23T01:19:00;3.03;;;1.60;;
3503;SDS011;1766;53.490;10.174;2023-01-23T01:21:04;8.50;;;4.60;;
3503;SDS011;1766;53.490;10.174;2023-01-23T01:23:08;3.10;;;1.70;;
3503;SDS011;1766;53.490;10.174;2023-01-23T01:25:10;6.50;;;3.53;;
3503;SDS011;1766;53.490;10.174;2023-01-23T01:27:13;3.97;;;1.97;;
3503;SDS011;1766;53.490;10.174;2023-01-23T01:29:15;3.67;;;1.87;;
3503;SDS011;1766;53.490;10.174;2023-01-23T01:31:17;3.87;;;1.83;;
3503;SDS011;1766;53.490;10.174;2023-01-23T01:33:19;3.60;;;2.03;;
3503;SDS011;1766;53.490;10.174;2023-01-23T01:35:23;1.70;;;1.60;;
3503;SDS011;1766;53.490;10.174;2023-01-23T01:37:25;3.37;;;1.90;;
3503;SDS011;1766;53.490;10.174;2023-01-23T01:39:27;4.20;;;1.97;;
3503;SDS011;1766;53.490;10.174;2023-01-23T01:41:29;3.67;;;1.97;;
3503;SDS011;1766;53.490;10.174;2023-01-23T01:43:32;4.80;;;1.83;;
3503;SDS011;1766;53.490;10.174;2023-01-23T01:48:09;2.07;;;1.70;;
3503;SDS011;1766;53.490;10.174;2023-01-23T01:50:10;1.83;;;1.40;;
3503;SDS011;1766;53.490;10.174;2023-01-23T01:52:12;4.83;;;1.40;;
3503;SDS011;1766;53.490;10.174;2023-01-23T01:54:18;3.53;;;1.77;;
3503;SDS011;1766;53.490;10.174;2023-01-23T01:56:27;3.27;;;2.13;;
3503;SDS011;1766;53.490;10.174;2023-01-23T01:58:36;2.97;;;2.00;;
3503;SDS011;1766;53.490;10.174;2023-01-23T02:00:39;1.63;;;1.50;;
3503;SDS011;1766;53.490;10.174;2023-01-23T02:02:42;1.70;;;1.60;;
3503;SDS011;1766;53.490;10.174;2023-01-23T02:04:51;2.40;;;1.67;;
3503;SDS011;1766;53.490;10.174;2023-01-23T02:07:00;2.53;;;1.70;;
3503;SDS011;1766;53.490;10.174;2023-01-23T02:09:09;3.13;;;1.40;;
3503;SDS011;1766;53.490;10.174;2023-01-23T02:11:17;2.97;;;1.80;;
3503;SDS011;1766;53.490;10.174;2023-01-23T02:13:23;2.13;;;1.53;;
3503;SDS011;1766;53.490;10.174;2023-01-23T02:15:32;7.10;;;1.73;;
3503;SDS011;1766;53.490;10.174;2023-01-23T02:17:34;2.17;;;1.50;;
3503;SDS011;1766;53.490;10.174;2023-01-23T02:19:39;6.60;;;1.70;;
3503;SDS011;1766;53.490;10.174;2023-01-23T02:21:52;2.60;;;1.70;;
3503;SDS011;1766;53.490;10.174;2023-01-23T02:24:06;3.57;;;1.70;;
3503;SDS011;1766;53.490;10.174;2023-01-23T02:26:19;2.13;;;1.40;;
3503;SDS011;1766;53.490;10.174;2023-01-23T02:28:35;1.43;;;1.23;;
3503;SDS011;1766;53.490;10.174;2023-01-23T02:30:40;1.93;;;1.30;;
3503;SDS011;1766;53.490;10.174;2023-01-23T02:32:45;1.87;;;1.40;;
3503;SDS011;1766;53.490;10.174;2023-01-23T02:34:47;1.10;;;1.00;;
3503;SDS011;1766;53.490;10.174;2023-01-23T02:36:50;2.33;;;1.40;;
3503;SDS011;1766;53.490;10.174;2023-01-23T02:38:53;3.23;;;1.40;;
3503;SDS011;1766;53.490;10.174;2023-01-23T02:41:03;1.87;;;1.30;;
3503;SDS011;1766;53.490;10.174;2023-01-23T02:43:09;2.33;;;1.63;;
3503;SDS011;1766;53.490;10.174;2023-01-23T02:45:16;4.73;;;1.30;;
3503;SDS011;1766;53.490;10.174;2023-01-23T02:47:17;2.97;;;1.43;;
3503;SDS011;1766;53.490;10.174;2023-01-23T02:49:19;6.87;;;1.60;;
3503;SDS011;1766;53.490;10.174;2023-01-23T02:51:21;1.90;;;1.60;;
3503;SDS011;1766;53.490;10.174;2023-01-23T02:53:23;1.47;;;1.30;;
3503;SDS011;1766;53.490;10.174;2023-01-23T02:55:26;2.93;;;1.77;;
3503;SDS011;1766;53.490;10.174;2023-01-23T02:57:29;2.63;;;1.47;;
3503;SDS011;1766;53.490;10.174;2023-01-23T02:59:32;3.97;;;2.03;;
3503;SDS011;1766;53.490;10.174;2023-01-23T03:01:48;2.60;;;1.60;;
3503;SDS011;1766;53.490;10.174;2023-01-23T03:03:50;2.87;;;1.70;;
3503;SDS011;1766;53.490;10.174;2023-01-23T03:05:52;2.07;;;1.37;;
3503;SDS011;1766;53.490;10.174;2023-01-23T03:07:54;4.13;;;1.67;;
3503;SDS011;1766;53.490;10.174;2023-01-23T03:09:57;2.17;;;1.70;;
3503;SDS011;1766;53.490;10.174;2023-01-23T03:11:58;3.97;;;1.60;;
3503;SDS011;1766;53.490;10.174;2023-01-23T03:14:00;2.30;;;1.70;;
3503;SDS011;1766;53.490;10.174;2023-01-23T03:16:04;4.53;;;1.70;;
3503;SDS011;1766;53.490;10.174;2023-01-23T03:18:06;4.97;;;2.00;;
3503;SDS011;1766;53.490;10.174;2023-01-23T03:20:09;4.90;;;1.70;;
3503;SDS011;1766;53.490;10.174;2023-01-23T03:22:11;2.87;;;1.60;;
3503;SDS011;1766;53.490;10.174;2023-01-23T03:24:21;4.43;;;1.53;;
3503;SDS011;1766;53.490;10.174;2023-01-23T03:26:23;2.97;;;1.70;;
3503;SDS011;1766;53.490;10.174;2023-01-23T03:28:25;3.73;;;1.80;;
3503;SDS011;1766;53.490;10.174;2023-01-23T03:30:41;1.67;;;1.57;;
3503;SDS011;1766;53.490;10.174;2023-01-23T03:32:44;3.50;;;1.90;;
3503;SDS011;1766;53.490;10.174;2023-01-23T03:34:46;2.80;;;1.70;;
3503;SDS011;1766;53.490;10.174;2023-01-23T03:36:48;4.67;;;1.87;;
3503;SDS011;1766;53.490;10.174;2023-01-23T03:38:50;3.00;;;1.73;;
3503;SDS011;1766;53.490;10.174;2023-01-23T03:41:06;2.37;;;1.80;;
3503;SDS011;1766;53.490;10.174;2023-01-23T03:43:21;2.07;;;1.97;;
3503;SDS011;1766;53.490;10.174;2023-01-23T03:45:23;2.97;;;2.30;;
3503;SDS011;1766;53.490;10.174;2023-01-23T03:47:25;3.17;;;2.37;;
3503;SDS011;1766;53.490;10.174;2023-01-23T03:49:28;2.43;;;2.23;;
3503;SDS011;1766;53.490;10.174;2023-01-23T03:51:30;2.37;;;1.87;;
3503;SDS011;1766;53.490;10.174;2023-01-23T03:53:32;2.50;;;2.30;;
3503;SDS011;1766;53.490;10.174;2023-01-23T03:55:34;2.17;;;1.80;;
3503;SDS011;1766;53.490;10.174;2023-01-23T03:57:36;2.07;;;1.87;;
3503;SDS011;1766;53.490;10.174;2023-01-23T03:59:38;4.07;;;2.00;;
3503;SDS011;1766;53.490;10.174;2023-01-23T04:01:39;2.40;;;2.10;;
3503;SDS011;1766;53.490;10.174;2023-01-23T04:03:41;4.37;;;1.83;;
3503;SDS011;1766;53.490;10.174;2023-01-23T04:05:44;3.60;;;2.13;;
3503;SDS011;1766;53.490;10.174;2023-01-23T04:07:46;2.60;;;1.97;;
3503;SDS011;1766;53.490;10.174;2023-01-23T04:09:48;3.10;;;2.10;;
3503;SDS011;1766;53.490;10.174;2023-01-23T04:11:50;4.23;;;2.53;;
3503;SDS011;1766;53.490;10.174;2023-01-23T04:13:51;2.83;;;2.10;;
3503;SDS011;1766;53.490;10.174;2023-01-23T04:15:54;3.13;;;2.17;;
3503;SDS011;1766;53.490;10.174;2023-01-23T04:17:55;3.70;;;2.40;;
3503;SDS011;1766;53.490;10.174;2023-01-23T04:19:57;4.27;;;2.23;;
3503;SDS011;1766;53.490;10.174;2023-01-23T04:22:00;3.00;;;2.03;;
3503;SDS011;1766;53.490;10.174;2023-01-23T04:24:14;6.53;;;2.00;;
3503;SDS011;1766;53.490;10.174;2023-01-23T04:26:16;2.70;;;1.97;;
3503;SDS011;1766;53.490;10.174;2023-01-23T04:28:18;2.13;;;1.90;;
3503;SDS011;1766;53.490;10.174;2023-01-23T04:30:20;3.97;;;2.23;;
3503;SDS011;1766;53.490;10.174;2023-01-23T04:32:22;2.13;;;1.93;;
3503;SDS011;1766;53.490;10.174;2023-01-23T04:34:24;3.80;;;1.93;;
3503;SDS011;1766;53.490;10.174;2023-01-23T04:36:25;5.30;;;2.50;;
3503;SDS011;1766;53.490;10.174;2023-01-23T04:38:29;3.87;;;2.70;;
3503;SDS011;1766;53.490;10.174;2023-01-23T04:40:31;6.93;;;4.47;;
3503;SDS011;1766;53.490;10.174;2023-01-23T04:42:33;7.23;;;4.33;;
3503;SDS011;1766;53.490;10.174;2023-01-23T04:44:35;6.60;;;3.63;;
3503;SDS011;1766;53.490;10.174;2023-01-23T04:46:37;5.90;;;2.80;;
3503;SDS011;1766;53.490;10.174;2023-01-23T04:48:39;6.00;;;3.60;;
3503;SDS011;1766;53.490;10.174;2023-01-23T04:50:41;11.30;;;4.10;;
3503;SDS011;1766;53.490;10.174;2023-01-23T04:52:43;5.43;;;3.40;;
3503;SDS011;1766;53.490;10.174;2023-01-23T04:54:46;3.13;;;2.73;;
3503;SDS011;1766;53.490;10.174;2023-01-23T04:56:48;4.77;;;2.97;;
3503;SDS011;1766;53.490;10.174;2023-01-23T04:58:50;4.17;;;3.17;;
3503;SDS011;1766;53.490;10.174;2023-01-23T05:00:52;5.50;;;3.13;;
3503;SDS011;1766;53.490;10.174;2023-01-23T05:02:54;5.73;;;3.33;;
3503;SDS011;1766;53.490;10.174;2023-01-23T05:04:57;3.70;;;2.97;;
3503;SDS011;1766;53.490;10.174;2023-01-23T05:06:58;5.50;;;2.93;;
3503;SDS011;1766;53.490;10.174;2023-01-23T05:09:00;6.07;;;3.83;;
3503;SDS011;1766;53.490;10.174;2023-01-23T05:11:04;6.27;;;3.20;;
3503;SDS011;1766;53.490;10.174;2023-01-23T05:13:05;5.37;;;2.90;;
3503;SDS011;1766;53.490;10.174;2023-01-23T05:15:09;3.73;;;3.23;;
3503;SDS011;1766;53.490;10.174;2023-01-23T05:17:12;5.67;;;3.07;;
3503;SDS011;1766;53.490;10.174;2023-01-23T05:19:14;5.77;;;2.77;;
3503;SDS011;1766;53.490;10.174;2023-01-23T05:21:15;3.33;;;2.87;;
3503;SDS011;1766;53.490;10.174;2023-01-23T05:23:17;5.10;;;3.77;;
3503;SDS011;1766;53.490;10.174;2023-01-23T05:25:20;4.23;;;3.03;;
3503;SDS011;1766;53.490;10.174;2023-01-23T05:27:24;5.17;;;3.37;;
3503;SDS011;1766;53.490;10.174;2023-01-23T05:29:26;4.90;;;3.23;;
3503;SDS011;1766;53.490;10.174;2023-01-23T05:31:28;3.60;;;3.07;;
3503;SDS011;1766;53.490;10.174;2023-01-23T05:33:30;8.83;;;6.00;;
3503;SDS011;1766;53.490;10.174;2023-01-23T05:35:32;6.00;;;4.97;;
3503;SDS011;1766;53.490;10.174;2023-01-23T05:37:33;4.93;;;3.33;;
3503;SDS011;1766;53.490;10.174;2023-01-23T05:39:35;6.07;;;3.30;;
3503;SDS011;1766;53.490;10.174;2023-01-23T05:41:39;4.77;;;3.97;;
3503;SDS011;1766;53.490;10.174;2023-01-23T05:43:42;3.10;;;2.87;;
3503;SDS011;1766;53.490;10.174;2023-01-23T05:45:44;11.70;;;6.60;;
3503;SDS011;1766;53.490;10.174;2023-01-23T05:47:46;50.03;;;24.07;;
3503;SDS011;1766;53.490;10.174;2023-01-23T05:49:47;17.60;;;8.70;;
3503;SDS011;1766;53.490;10.174;2023-01-23T05:51:49;6.63;;;4.50;;
3503;SDS011;1766;53.490;10.174;2023-01-23T05:53:51;5.47;;;3.80;;
3503;SDS011;1766;53.490;10.174;2023-01-23T05:55:52;4.80;;;4.07;;
3503;SDS011;1766;53.490;10.174;2023-01-23T05:57:54;7.73;;;3.53;;
3503;SDS011;1766;53.490;10.174;2023-01-23T05:59:57;18.77;;;11.93;;
3503;SDS011;1766;53.490;10.174;2023-01-23T06:01:59;10.63;;;6.43;;
3503;SDS011;1766;53.490;10.174;2023-01-23T06:04:01;6.67;;;4.20;;
3503;SDS011;1766;53.490;10.174;2023-01-23T06:06:03;6.00;;;3.83;;
3503;SDS011;1766;53.490;10.174;2023-01-23T06:08:05;4.20;;;3.30;;
3503;SDS011;1766;53.490;10.174;2023-01-23T06:10:07;5.30;;;3.10;;
3503;SDS011;1766;53.490;10.174;2023-01-23T06:12:10;5.47;;;3.67;;
3503;SDS011;1766;53.490;10.174;2023-01-23T06:14:12;4.50;;;3.23;;
3503;SDS011;1766;53.490;10.174;2023-01-23T06:16:15;4.07;;;3.10;;
3503;SDS011;1766;53.490;10.174;2023-01-23T06:18:17;5.20;;;3.30;;
3503;SDS011;1766;53.490;10.174;2023-01-23T06:20:19;8.27;;;3.40;;
3503;SDS011;1766;53.490;10.174;2023-01-23T06:22:21;6.90;;;3.90;;
3503;SDS011;1766;53.490;10.174;2023-01-23T06:24:23;5.70;;;3.37;;
3503;SDS011;1766;53.490;10.174;2023-01-23T06:26:25;7.77;;;4.00;;
3503;SDS011;1766;53.490;10.174;2023-01-23T06:28:27;4.67;;;3.10;;
3503;SDS011;1766;53.490;10.174;2023-01-23T06:30:29;4.50;;;3.40;;
3503;SDS011;1766;53.490;10.174;2023-01-23T06:32:32;4.57;;;3.47;;
3503;SDS011;1766;53.490;10.174;2023-01-23T06:34:34;5.50;;;3.77;;
3503;SDS011;1766;53.490;10.174;2023-01-23T06:36:36;5.07;;;3.90;;
3503;SDS011;1766;53.490;10.174;2023-01-23T06:38:39;5.43;;;3.57;;
3503;SDS011;1766;53.490;10.174;2023-01-23T06:40:40;5.33;;;3.47;;
3503;SDS011;1766;53.490;10.174;2023-01-23T06:42:44;6.93;;;3.97;;
3503;SDS011;1766;53.490;10.174;2023-01-23T06:44:46;4.93;;;3.87;;
3503;SDS011;1766;53.490;10.174;2023-01-23T06:46:48;3.57;;;3.27;;
3503;SDS011;1766;53.490;10.174;2023-01-23T06:48:54;3.80;;;3.40;;
3503;SDS011;1766;53.490;10.174;2023-01-23T06:50:58;4.40;;;3.33;;
3503;SDS011;1766;53.490;10.174;2023-01-23T06:53:00;6.63;;;3.53;;
3503;SDS011;1766;53.490;10.174;2023-01-23T06:55:02;6.60;;;3.93;;
3503;SDS011;1766;53.490;10.174;2023-01-23T06:57:05;5.40;;;3.90;;
3503;SDS011;1766;53.490;10.174;2023-01-23T06:59:07;5.70;;;3.93;;
3503;SDS011;1766;53.490;10.174;2023-01-23T07:01:09;5.17;;;3.60;;
3503;SDS011;1766;53.490;10.174;2023-01-23T07:03:14;6.13;;;3.43;;
3503;SDS011;1766;53.490;10.174;2023-01-23T07:05:18;6.23;;;4.03;;
3503;SDS011;1766;53.490;10.174;2023-01-23T07:07:20;4.87;;;3.67;;
3503;SDS011;1766;53.490;10.174;2023-01-23T07:09:26;6.40;;;3.70;;
3503;SDS011;1766;53.490;10.174;2023-01-23T07:11:28;5.37;;;3.53;;
3503;SDS011;1766;53.490;10.174;2023-01-23T07:13:30;5.73;;;3.83;;
3503;SDS011;1766;53.490;10.174;2023-01-23T07:15:32;5.40;;;3.57;;
3503;SDS011;1766;53.490;10.174;2023-01-23T07:17:35;5.63;;;4.03;;
3503;SDS011;1766;53.490;10.174;2023-01-23T07:19:36;10.03;;;4.80;;
3503;SDS011;1766;53.490;10.174;2023-01-23T07:21:39;12.77;;;4.77;;
3503;SDS011;1766;53.490;10.174;2023-01-23T07:23:41;5.90;;;4.13;;
3503;SDS011;1766;53.490;10.174;2023-01-23T07:25:43;5.07;;;4.27;;
3503;SDS011;1766;53.490;10.174;2023-01-23T07:27:45;7.33;;;4.10;;
3503;SDS011;1766;53.490;10.174;2023-01-23T07:29:47;4.70;;;3.83;;
3503;SDS011;1766;53.490;10.174;2023-01-23T07:31:48;7.30;;;3.73;;
3503;SDS011;1766;53.490;10.174;2023-01-23T07:33:50;7.03;;;4.17;;
3503;SDS011;1766;53.490;10.174;2023-01-23T07:35:52;6.63;;;4.20;;
3503;SDS011;1766;53.490;10.174;2023-01-23T07:37:55;7.63;;;3.77;;
3503;SDS011;1766;53.490;10.174;2023-01-23T07:39:58;6.57;;;4.53;;
3503;SDS011;1766;53.490;10.174;2023-01-23T07:41:59;5.53;;;4.30;;
3503;SDS011;1766;53.490;10.174;2023-01-23T07:44:01;9.73;;;4.77;;
3503;SDS011;1766;53.490;10.174;2023-01-23T07:46:03;7.27;;;4.17;;
3503;SDS011;1766;53.490;10.174;2023-01-23T07:48:05;5.43;;;3.80;;
3503;SDS011;1766;53.490;10.174;2023-01-23T07:50:08;6.97;;;3.90;;
3503;SDS011;1766;53.490;10.174;2023-01-23T07:52:12;4.80;;;3.87;;
3503;SDS011;1766;53.490;10.174;2023-01-23T07:54:15;9.40;;;4.50;;
3503;SDS011;1766;53.490;10.174;2023-01-23T07:56:17;10.13;;;4.67;;
3503;SDS011;1766;53.490;10.174;2023-01-23T07:58:19;5.77;;;4.17;;
3503;SDS011;1766;53.490;10.174;2023-01-23T08:00:21;5.10;;;4.00;;
3503;SDS011;1766;53.490;10.174;2023-01-23T08:02:24;7.27;;;4.73;;
3503;SDS011;1766;53.490;10.174;2023-01-23T08:04:25;6.00;;;4.17;;
3503;SDS011;1766;53.490;10.174;2023-01-23T08:06:27;6.00;;;4.07;;
3503;SDS011;1766;53.490;10.174;2023-01-23T08:08:29;5.20;;;4.30;;
3503;SDS011;1766;53.490;10.174;2023-01-23T08:10:32;7.47;;;4.57;;
3503;SDS011;1766;53.490;10.174;2023-01-23T08:12:34;7.20;;;4.73;;
3503;SDS011;1766;53.490;10.174;2023-01-23T08:14:36;8.17;;;4.40;;
3503;SDS011;1766;53.490;10.174;2023-01-23T08:16:38;6.23;;;4.27;;
3503;SDS011;1766;53.490;10.174;2023-01-23T08:18:40;6.00;;;3.90;;
3503;SDS011;1766;53.490;10.174;2023-01-23T08:20:41;8.73;;;4.27;;
3503;SDS011;1766;53.490;10.174;2023-01-23T08:22:43;8.13;;;5.23;;
3503;SDS011;1766;53.490;10.174;2023-01-23T08:24:45;7.73;;;5.13;;
3503;SDS011;1766;53.490;10.174;2023-01-23T08:26:48;6.47;;;4.83;;
3503;SDS011;1766;53.490;10.174;2023-01-23T08:28:50;9.23;;;5.33;;
3503;SDS011;1766;53.490;10.174;2023-01-23T08:30:52;6.70;;;5.10;;
3503;SDS011;1766;53.490;10.174;2023-01-23T08:32:54;7.00;;;4.70;;
3503;SDS011;1766;53.490;10.174;2023-01-23T08:34:56;12.87;;;5.27;;
3503;SDS011;1766;53.490;10.174;2023-01-23T08:36:58;9.77;;;5.00;;
3503;SDS011;1766;53.490;10.174;2023-01-23T08:39:09;7.50;;;4.80;;
3503;SDS011;1766;53.490;10.174;2023-01-23T08:41:11;10.83;;;4.97;;
3503;SDS011;1766;53.490;10.174;2023-01-23T08:43:15;5.33;;;4.27;;
3503;SDS011;1766;53.490;10.174;2023-01-23T08:45:18;8.07;;;4.77;;
3503;SDS011;1766;53.490;10.174;2023-01-23T08:47:21;11.13;;;5.67;;
3503;SDS011;1766;53.490;10.174;2023-01-23T08:49:23;8.97;;;5.00;;
3503;SDS011;1766;53.490;10.174;2023-01-23T08:51:25;7.93;;;5.47;;
3503;SDS011;1766;53.490;10.174;2023-01-23T08:53:27;9.37;;;5.40;;
3503;SDS011;1766;53.490;10.174;2023-01-23T08:55:29;10.23;;;5.20;;
3503;SDS011;1766;53.490;10.174;2023-01-23T08:57:32;7.53;;;5.53;;
3503;SDS011;1766;53.490;10.174;2023-01-23T08:59:35;10.53;;;5.17;;
3503;SDS011;1766;53.490;10.174;2023-01-23T09:01:36;8.13;;;5.37;;
3503;SDS011;1766;53.490;10.174;2023-01-23T09:03:38;9.20;;;5.30;;
3503;SDS011;1766;53.490;10.174;2023-01-23T09:05:40;9.33;;;5.03;;
3503;SDS011;1766;53.490;10.174;2023-01-23T09:07:42;9.10;;;5.87;;
3503;SDS011;1766;53.490;10.174;2023-01-23T09:09:44;14.47;;;5.77;;
3503;SDS011;1766;53.490;10.174;2023-01-23T09:11:46;11.37;;;5.63;;
3503;SDS011;1766;53.490;10.174;2023-01-23T09:13:48;9.00;;;5.67;;
3503;SDS011;1766;53.490;10.174;2023-01-23T09:15:51;12.97;;;5.67;;
3503;SDS011;1766;53.490;10.174;2023-01-23T09:17:53;11.00;;;5.47;;
3503;SDS011;1766;53.490;10.174;2023-01-23T09:19:55;10.60;;;5.30;;
3503;SDS011;1766;53.490;10.174;2023-01-23T09:21:59;11.33;;;6.10;;
3503;SDS011;1766;53.490;10.174;2023-01-23T09:24:01;12.43;;;5.33;;
3503;SDS011;1766;53.490;10.174;2023-01-23T09:26:03;9.43;;;5.40;;
3503;SDS011;1766;53.490;10.174;2023-01-23T09:28:06;10.47;;;5.37;;
3503;SDS011;1766;53.490;10.174;2023-01-23T09:30:09;9.80;;;5.77;;
3503;SDS011;1766;53.490;10.174;2023-01-23T09:32:12;9.53;;;5.63;;
3503;SDS011;1766;53.490;10.174;2023-01-23T09:34:14;7.53;;;5.73;;
3503;SDS011;1766;53.490;10.174;2023-01-23T09:36:16;10.93;;;5.90;;
3503;SDS011;1766;53.490;10.174;2023-01-23T09:38:18;10.83;;;5.60;;
3503;SDS011;1766;53.490;10.174;2023-01-23T09:40:20;12.67;;;6.40;;
3503;SDS011;1766;53.490;10.174;2023-01-23T09:42:25;13.43;;;6.07;;
3503;SDS011;1766;53.490;10.174;2023-01-23T09:44:34;10.03;;;5.40;;
3503;SDS011;1766;53.490;10.174;2023-01-23T09:46:40;9.17;;;6.13;;
3503;SDS011;1766;53.490;10.174;2023-01-23T09:48:49;13.13;;;5.90;;
3503;SDS011;1766;53.490;10.174;2023-01-23T09:50:59;10.83;;;6.20;;
3503;SDS011;1766;53.490;10.174;2023-01-23T09:53:08;11.77;;;6.07;;
3503;SDS011;1766;53.490;10.174;2023-01-23T09:55:14;12.57;;;5.77;;
3503;SDS011;1766;53.490;10.174;2023-01-23T09:57:24;11.37;;;6.07;;
3503;SDS011;1766;53.490;10.174;2023-01-23T09:59:34;12.77;;;6.03;;
3503;SDS011;1766;53.490;10.174;2023-01-23T10:01:37;11.50;;;5.93;;
3503;SDS011;1766;53.490;10.174;2023-01-23T10:03:40;8.70;;;5.23;;
3503;SDS011;1766;53.490;10.174;2023-01-23T10:05:45;10.80;;;5.80;;
3503;SDS011;1766;53.490;10.174;2023-01-23T10:08:03;11.50;;;5.67;;
3503;SDS011;1766;53.490;10.174;2023-01-23T10:10:32;12.93;;;5.97;;
3503;SDS011;1766;53.490;10.174;2023-01-23T10:12:46;9.33;;;5.60;;
3503;SDS011;1766;53.490;10.174;2023-01-23T10:14:58;11.27;;;5.77;;
3503;SDS011;1766;53.490;10.174;2023-01-23T10:17:17;14.43;;;6.90;;
3503;SDS011;1766;53.490;10.174;2023-01-23T10:19:34;10.93;;;5.87;;
3503;SDS011;1766;53.490;10.174;2023-01-23T10:21:57;11.47;;;6.83;;
3503;SDS011;1766;53.490;10.174;2023-01-23T10:24:15;8.63;;;5.77;;
3503;SDS011;1766;53.490;10.174;2023-01-23T10:26:33;12.00;;;6.50;;
3503;SDS011;1766;53.490;10.174;2023-01-23T10:28:40;13.50;;;6.50;;
3503;SDS011;1766;53.490;10.174;2023-01-23T10:30:45;16.30;;;6.70;;
3503;SDS011;1766;53.490;10.174;2023-01-23T10:32:54;12.83;;;6.17;;
3503;SDS011;1766;53.490;10.174;2023-01-23T10:34:59;12.43;;;6.53;;
3503;SDS011;1766;53.490;10.174;2023-01-23T10:37:06;15.03;;;7.33;;
3503;SDS011;1766;53.490;10.174;2023-01-23T10:39:19;11.80;;;6.87;;
3503;SDS011;1766;53.490;10.174;2023-01-23T10:41:26;13.30;;;6.47;;
3503;SDS011;1766;53.490;10.174;2023-01-23T10:43:28;13.30;;;6.80;;
3503;SDS011;1766;53.490;10.174;2023-01-23T10:45:30;11.77;;;6.57;;
3503;SDS011;1766;53.490;10.174;2023-01-23T10:47:33;14.53;;;6.97;;
3503;SDS011;1766;53.490;10.174;2023-01-23T10:49:36;11.90;;;7.63;;
3503;SDS011;1766;53.490;10.174;2023-01-23T10:51:45;12.60;;;7.57;;
3503;SDS011;1766;53.490;10.174;2023-01-23T10:54:00;11.80;;;6.87;;
3503;SDS011;1766;53.490;10.174;2023-01-23T10:56:09;16.20;;;6.67;;
3503;SDS011;1766;53.490;10.174;2023-01-23T10:58:26;11.63;;;6.60;;
3503;SDS011;1766;53.490;10.174;2023-01-23T11:00:34;17.13;;;7.87;;
3503;SDS011;1766;53.490;10.174;2023-01-23T11:02:39;15.73;;;8.00;;
3503;SDS011;1766;53.490;10.174;2023-01-23T11:04:43;17.40;;;8.37;;
3503;SDS011;1766;53.490;10.174;2023-01-23T11:06:57;17.67;;;8.77;;
3503;SDS011;1766;53.490;10.174;2023-01-23T11:09:07;17.20;;;8.87;;
3503;SDS011;1766;53.490;10.174;2023-01-23T11:11:21;13.27;;;8.00;;
3503;SDS011;1766;53.490;10.174;2023-01-23T11:13:26;16.47;;;8.77;;
3503;SDS011;1766;53.490;10.174;2023-01-23T11:15:30;14.40;;;7.93;;
3503;SDS011;1766;53.490;10.174;2023-01-23T11:17:33;12.93;;;7.27;;
3503;SDS011;1766;53.490;10.174;2023-01-23T11:19:35;13.23;;;7.73;;
3503;SDS011;1766;53.490;10.174;2023-01-23T11:21:37;13.07;;;7.53;;
3503;SDS011;1766;53.490;10.174;2023-01-23T11:24:07;12.00;;;6.77;;
3503;SDS011;1766;53.490;10.174;2023-01-23T11:26:29;13.67;;;7.77;;
3503;SDS011;1766;53.490;10.174;2023-01-23T11:28:32;14.93;;;7.80;;
3503;SDS011;1766;53.490;10.174;2023-01-23T11:30:46;13.60;;;7.83;;
3503;SDS011;1766;53.490;10.174;2023-01-23T11:32:53;14.83;;;7.43;;
3503;SDS011;1766;53.490;10.174;2023-01-23T11:35:02;14.00;;;7.70;;
3503;SDS011;1766;53.490;10.174;2023-01-23T11:37:14;15.10;;;8.20;;
3503;SDS011;1766;53.490;10.174;2023-01-23T11:39:23;15.43;;;8.60;;
3503;SDS011;1766;53.490;10.174;2023-01-23T11:41:40;13.70;;;7.30;;
3503;SDS011;1766;53.490;10.174;2023-01-23T11:43:43;12.13;;;6.87;;
3503;SDS011;1766;53.490;10.174;2023-01-23T11:45:47;15.27;;;8.03;;
3503;SDS011;1766;53.490;10.174;2023-01-23T11:48:09;14.73;;;8.13;;
3503;SDS011;1766;53.490;10.174;2023-01-23T11:50:28;13.83;;;8.70;;
3503;SDS011;1766;53.490;10.174;2023-01-23T11:52:40;12.83;;;8.17;;
3503;SDS011;1766;53.490;10.174;2023-01-23T11:54:55;15.03;;;8.80;;
3503;SDS011;1766;53.490;10.174;2023-01-23T11:57:14;14.83;;;8.27;;
3503;SDS011;1766;53.490;10.174;2023-01-23T11:59:31;11.40;;;7.57;;
3503;SDS011;1766;53.490;10.174;2023-01-23T12:01:48;13.60;;;7.87;;
3503;SDS011;1766;53.490;10.174;2023-01-23T12:04:11;14.27;;;8.00;;
3503;SDS011;1766;53.490;10.174;2023-01-23T12:06:34;17.93;;;8.17;;
3503;SDS011;1766;53.490;10.174;2023-01-23T12:08:48;14.30;;;8.33;;
3503;SDS011;1766;53.490;10.174;2023-01-23T12:11:04;17.57;;;8.60;;
3503;SDS011;1766;53.490;10.174;2023-01-23T12:13:15;13.00;;;7.67;;
3503;SDS011;1766;53.490;10.174;2023-01-23T12:15:41;16.67;;;8.77;;
3503;SDS011;1766;53.490;10.174;2023-01-23T12:17:48;16.77;;;8.90;;
3503;SDS011;1766;53.490;10.174;2023-01-23T12:20:02;13.63;;;7.67;;
3503;SDS011;1766;53.490;10.174;2023-01-23T12:22:22;13.53;;;7.53;;
3503;SDS011;1766;53.490;10.174;2023-01-23T12:24:37;14.27;;;7.97;;
3503;SDS011;1766;53.490;10.174;2023-01-23T12:26:59;15.97;;;8.23;;
3503;SDS011;1766;53.490;10.174;2023-01-23T12:29:26;14.70;;;8.43;;
3503;SDS011;1766;53.490;10.174;2023-01-23T12:31:46;13.63;;;8.17;;
3503;SDS011;1766;53.490;10.174;2023-01-23T12:34:09;17.33;;;7.97;;
3503;SDS011;1766;53.490;10.174;2023-01-23T12:36:27;14.20;;;8.73;;
3503;SDS011;1766;53.490;10.174;2023-01-23T12:38:48;14.83;;;8.73;;
3503;SDS011;1766;53.490;10.174;2023-01-23T12:41:05;13.73;;;8.47;;
3503;SDS011;1766;53.490;10.174;2023-01-23T12:43:15;11.90;;;7.77;;
3503;SDS011;1766;53.490;10.174;2023-01-23T12:45:23;13.77;;;8.60;;